sensor_id;sensor_type;location;lat;lon;timestamp;P1;durP1;ratioP1;P2;durP2;ratioP2
48795;SDS011;34607;48.520;-1.330;2023-12-07T08:18:14;7.05;;;3.80;;
48795;SDS011;34607;48.520;-1.330;2023-12-07T08:20:41;9.40;;;3.92;;
48795;SDS011;34607;48.520;-1.330;2023-12-07T08:23:09;7.32;;;4.53;;
48795;SDS011;34607;48.520;-1.330;2023-12-07T08:25:38;9.02;;;4.28;;
48795;SDS011;34607;48.520;-1.330;2023-12-07T08:28:05;10.70;;;3.97;;
48795;SDS011;34607;48.520;-1.330;2023-12-07T08:30:34;10.20;;;4.38;;
48795;SDS011;34607;48.520;-1.330;2023-12-07T08:33:01;6.10;;;3.70;;
48795;SDS011;34607;48.520;-1.330;2023-12-07T08:35:30;8.60;;;4.75;;
48795;SDS011;34607;48.520;-1.330;2023-12-07T08:37:57;7.93;;;4.47;;
48795;SDS011;34607;48.520;-1.330;2023-12-07T08:40:24;6.93;;;4.22;;
48795;SDS011;34607;48.520;-1.330;2023-12-07T08:42:51;4.88;;;3.67;;
48795;SDS011;34607;48.520;-1.330;2023-12-07T08:45:21;7.38;;;4.28;;
48795;SDS011;34607;48.520;-1.330;2023-12-07T08:47:49;9.60;;;4.05;;
48795;SDS011;34607;48.520;-1.330;2023-12-07T08:50:16;7.03;;;4.20;;
48795;SDS011;34607;48.520;-1.330;2023-12-07T08:52:44;7.28;;;4.53;;
48795;SDS011;34607;48.520;-1.330;2023-12-07T08:55:11;8.80;;;4.20;;
48795;SDS011;34607;48.520;-1.330;2023-12-07T08:57:40;11.02;;;4.53;;
48795;SDS011;34607;48.520;-1.330;2023-12-07T09:00:07;7.97;;;4.50;;
48795;SDS011;34607;48.520;-1.330;2023-12-07T09:02:35;6.05;;;4.05;;
48795;SDS011;34607;48.520;-1.330;2023-12-07T09:05:03;6.32;;;4.65;;
48795;SDS011;34607;48.520;-1.330;2023-12-07T09:07:30;7.78;;;4.13;;
48795;SDS011;34607;48.520;-1.330;2023-12-07T09:09:59;11.05;;;4.72;;
48795;SDS011;34607;48.520;-1.330;2023-12-07T09:12:26;7.57;;;5.22;;
48795;SDS011;34607;48.520;-1.330;2023-12-07T09:14:53;7.55;;;4.97;;
48795;SDS011;34607;48.520;-1.330;2023-12-07T09:17:20;9.77;;;5.03;;
48795;SDS011;34607;48.520;-1.330;2023-12-07T09:19:47;8.60;;;4.88;;
48795;SDS011;34607;48.520;-1.330;2023-12-07T09:22:14;9.38;;;4.95;;
48795;SDS011;34607;48.520;-1.330;2023-12-07T09:24:41;7.25;;;4.45;;
48795;SDS011;34607;48.520;-1.330;2023-12-07T09:27:10;9.02;;;5.10;;
48795;SDS011;34607;48.520;-1.330;2023-12-07T09:29:37;7.85;;;5.47;;
48795;SDS011;34607;48.520;-1.330;2023-12-07T09:32:04;6.18;;;4.82;;
48795;SDS011;34607;48.520;-1.330;2023-12-07T09:34:32;8.95;;;4.32;;
48795;SDS011;34607;48.520;-1.330;2023-12-07T09:37:05;8.27;;;4.93;;
48795;SDS011;34607;48.520;-1.330;2023-12-07T09:39:33;7.10;;;4.63;;
48795;SDS011;34607;48.520;-1.330;2023-12-07T09:42:00;5.35;;;4.55;;
48795;SDS011;34607;48.520;-1.330;2023-12-07T09:44:29;8.15;;;5.20;;
48795;SDS011;34607;48.520;-1.330;2023-12-07T09:46:56;11.73;;;5.72;;
48795;SDS011;34607;48.520;-1.330;2023-12-07T09:49:23;10.55;;;5.00;;
48795;SDS011;34607;48.520;-1.330;2023-12-07T09:51:51;8.90;;;4.93;;
48795;SDS011;34607;48.520;-1.330;2023-12-07T09:54:20;12.30;;;4.95;;
48795;SDS011;34607;48.520;-1.330;2023-12-07T09:56:48;8.32;;;5.00;;
48795;SDS011;34607;48.520;-1.330;2023-12-07T09:59:18;8.63;;;5.00;;
48795;SDS011;34607;48.520;-1.330;2023-12-07T10:01:47;8.27;;;5.50;;
48795;SDS011;34607;48.520;-1.330;2023-12-07T10:04:18;8.23;;;5.97;;
48795;SDS011;34607;48.520;-1.330;2023-12-07T10:06:48;10.13;;;5.38;;
48795;SDS011;34607;48.520;-1.330;2023-12-07T10:09:15;12.95;;;5.78;;
48795;SDS011;34607;48.520;-1.330;2023-12-07T10:11:44;7.40;;;5.80;;
48795;SDS011;34607;48.520;-1.330;2023-12-07T10:14:11;9.98;;;5.13;;
48795;SDS011;34607;48.520;-1.330;2023-12-07T10:16:39;10.80;;;5.35;;
48795;SDS011;34607;48.520;-1.330;2023-12-07T10:19:22;9.40;;;5.40;;
48795;SDS011;34607;48.520;-1.330;2023-12-07T10:21:51;8.52;;;5.38;;
48795;SDS011;34607;48.520;-1.330;2023-12-07T10:24:19;9.90;;;5.30;;
48795;SDS011;34607;48.520;-1.330;2023-12-07T10:26:47;7.88;;;5.13;;
48795;SDS011;34607;48.520;-1.330;2023-12-07T10:29:17;8.85;;;5.57;;
48795;SDS011;34607;48.520;-1.330;2023-12-07T10:31:44;10.32;;;5.18;;
48795;SDS011;34607;48.520;-1.330;2023-12-07T10:34:15;8.20;;;5.22;;
48795;SDS011;34607;48.520;-1.330;2023-12-07T10:36:46;11.65;;;5.13;;
48795;SDS011;34607;48.520;-1.330;2023-12-07T10:39:14;11.10;;;5.72;;
48795;SDS011;34607;48.520;-1.330;2023-12-07T10:41:42;7.43;;;5.32;;
48795;SDS011;34607;48.520;-1.330;2023-12-07T10:44:11;7.88;;;4.85;;
48795;SDS011;34607;48.520;-1.330;2023-12-07T10:46:41;8.32;;;4.93;;
48795;SDS011;34607;48.520;-1.330;2023-12-07T10:49:11;6.97;;;5.63;;
48795;SDS011;34607;48.520;-1.330;2023-12-07T10:51:45;6.20;;;4.38;;
48795;SDS011;34607;48.520;-1.330;2023-12-07T10:54:18;11.70;;;5.32;;
48795;SDS011;34607;48.520;-1.330;2023-12-07T10:56:49;7.32;;;5.07;;
48795;SDS011;34607;48.520;-1.330;2023-12-07T10:59:17;10.38;;;5.78;;
48795;SDS011;34607;48.520;-1.330;2023-12-07T11:01:46;8.75;;;5.07;;
48795;SDS011;34607;48.520;-1.330;2023-12-07T11:04:16;8.35;;;4.55;;
48795;SDS011;34607;48.520;-1.330;2023-12-07T11:06:44;8.90;;;5.00;;
48795;SDS011;34607;48.520;-1.330;2023-12-07T11:09:16;7.68;;;4.38;;
48795;SDS011;34607;48.520;-1.330;2023-12-07T11:11:50;7.15;;;5.05;;
48795;SDS011;34607;48.520;-1.330;2023-12-07T11:14:21;6.90;;;4.60;;
48795;SDS011;34607;48.520;-1.330;2023-12-07T11:16:48;6.15;;;5.00;;
48795;SDS011;34607;48.520;-1.330;2023-12-07T11:22:13;7.07;;;4.60;;
48795;SDS011;34607;48.520;-1.330;2023-12-07T11:27:29;6.47;;;5.15;;
48795;SDS011;34607;48.520;-1.330;2023-12-07T11:29:58;6.35;;;5.30;;
48795;SDS011;34607;48.520;-1.330;2023-12-07T11:32:26;6.13;;;4.80;;
48795;SDS011;34607;48.520;-1.330;2023-12-07T11:34:58;6.32;;;5.10;;
48795;SDS011;34607;48.520;-1.330;2023-12-07T11:37:59;6.60;;;4.95;;
48795;SDS011;34607;48.520;-1.330;2023-12-07T11:40:29;7.30;;;4.97;;
48795;SDS011;34607;48.520;-1.330;2023-12-07T11:42:56;7.20;;;5.45;;
48795;SDS011;34607;48.520;-1.330;2023-12-07T11:45:38;6.20;;;4.63;;
48795;SDS011;34607;48.520;-1.330;2023-12-07T11:48:09;8.40;;;5.37;;
48795;SDS011;34607;48.520;-1.330;2023-12-07T11:50:45;5.40;;;4.47;;
48795;SDS011;34607;48.520;-1.330;2023-12-07T11:53:21;9.23;;;5.35;;
48795;SDS011;34607;48.520;-1.330;2023-12-07T11:55:49;10.88;;;7.80;;
48795;SDS011;34607;48.520;-1.330;2023-12-07T11:58:16;8.05;;;6.07;;
48795;SDS011;34607;48.520;-1.330;2023-12-07T12:00:43;9.90;;;6.43;;
48795;SDS011;34607;48.520;-1.330;2023-12-07T12:03:11;8.15;;;5.90;;
48795;SDS011;34607;48.520;-1.330;2023-12-07T12:05:39;8.30;;;5.22;;
48795;SDS011;34607;48.520;-1.330;2023-12-07T12:08:08;6.03;;;5.43;;
48795;SDS011;34607;48.520;-1.330;2023-12-07T12:10:35;6.43;;;5.03;;
48795;SDS011;34607;48.520;-1.330;2023-12-07T12:13:02;7.30;;;4.30;;
48795;SDS011;34607;48.520;-1.330;2023-12-07T12:15:31;6.43;;;4.75;;
48795;SDS011;34607;48.520;-1.330;2023-12-07T12:17:59;5.35;;;4.53;;
48795;SDS011;34607;48.520;-1.330;2023-12-07T12:20:27;6.65;;;5.13;;
48795;SDS011;34607;48.520;-1.330;2023-12-07T12:22:54;7.25;;;5.57;;
48795;SDS011;34607;48.520;-1.330;2023-12-07T12:25:22;12.13;;;7.80;;
48795;SDS011;34607;48.520;-1.330;2023-12-07T12:27:53;7.22;;;5.35;;
48795;SDS011;34607;48.520;-1.330;2023-12-07T12:30:21;7.88;;;5.70;;
48795;SDS011;34607;48.520;-1.330;2023-12-07T12:32:49;10.13;;;7.90;;
48795;SDS011;34607;48.520;-1.330;2023-12-07T12:35:17;7.45;;;6.47;;
48795;SDS011;34607;48.520;-1.330;2023-12-07T12:37:45;7.43;;;4.90;;
48795;SDS011;34607;48.520;-1.330;2023-12-07T12:40:15;6.82;;;4.75;;
48795;SDS011;34607;48.520;-1.330;2023-12-07T12:42:46;5.65;;;4.15;;
48795;SDS011;34607;48.520;-1.330;2023-12-07T12:45:14;5.38;;;4.50;;
48795;SDS011;34607;48.520;-1.330;2023-12-07T12:47:43;5.35;;;4.28;;
48795;SDS011;34607;48.520;-1.330;2023-12-07T12:50:12;4.30;;;3.78;;
48795;SDS011;34607;48.520;-1.330;2023-12-07T12:52:58;4.88;;;4.47;;
48795;SDS011;34607;48.520;-1.330;2023-12-07T12:55:25;6.70;;;5.00;;
48795;SDS011;34607;48.520;-1.330;2023-12-07T12:57:55;5.80;;;4.35;;
48795;SDS011;34607;48.520;-1.330;2023-12-07T13:00:23;8.55;;;3.95;;
48795;SDS011;34607;48.520;-1.330;2023-12-07T13:02:51;6.40;;;4.45;;
48795;SDS011;34607;48.520;-1.330;2023-12-07T13:05:18;6.57;;;4.25;;
48795;SDS011;34607;48.520;-1.330;2023-12-07T13:07:45;7.93;;;5.38;;
48795;SDS011;34607;48.520;-1.330;2023-12-07T13:10:14;5.93;;;4.10;;
48795;SDS011;34607;48.520;-1.330;2023-12-07T13:12:41;5.35;;;3.90;;
48795;SDS011;34607;48.520;-1.330;2023-12-07T13:15:10;6.25;;;4.28;;
48795;SDS011;34607;48.520;-1.330;2023-12-07T13:17:37;6.43;;;4.25;;
48795;SDS011;34607;48.520;-1.330;2023-12-07T13:20:07;6.25;;;4.05;;
48795;SDS011;34607;48.520;-1.330;2023-12-07T13:22:35;6.88;;;4.47;;
48795;SDS011;34607;48.520;-1.330;2023-12-07T13:25:03;5.63;;;4.18;;
48795;SDS011;34607;48.520;-1.330;2023-12-07T13:27:31;6.13;;;4.07;;
48795;SDS011;34607;48.520;-1.330;2023-12-07T13:29:59;5.72;;;4.00;;
48795;SDS011;34607;48.520;-1.330;2023-12-07T13:32:27;7.70;;;4.75;;
48795;SDS011;34607;48.520;-1.330;2023-12-07T13:34:54;4.97;;;4.47;;
48795;SDS011;34607;48.520;-1.330;2023-12-07T13:37:21;7.60;;;4.50;;
48795;SDS011;34607;48.520;-1.330;2023-12-07T13:39:48;6.32;;;4.28;;
48795;SDS011;34607;48.520;-1.330;2023-12-07T13:42:23;6.82;;;4.15;;
48795;SDS011;34607;48.520;-1.330;2023-12-07T13:44:52;4.65;;;4.05;;
48795;SDS011;34607;48.520;-1.330;2023-12-07T13:47:23;5.10;;;4.07;;
48795;SDS011;34607;48.520;-1.330;2023-12-07T13:49:55;5.47;;;4.10;;
48795;SDS011;34607;48.520;-1.330;2023-12-07T13:52:22;4.85;;;3.90;;
48795;SDS011;34607;48.520;-1.330;2023-12-07T13:54:50;5.35;;;4.13;;
48795;SDS011;34607;48.520;-1.330;2023-12-07T13:57:17;4.90;;;4.15;;
48795;SDS011;34607;48.520;-1.330;2023-12-07T13:59:44;9.73;;;5.28;;
48795;SDS011;34607;48.520;-1.330;2023-12-07T14:02:12;5.97;;;4.50;;
48795;SDS011;34607;48.520;-1.330;2023-12-07T14:04:39;5.05;;;4.30;;
48795;SDS011;34607;48.520;-1.330;2023-12-07T14:07:10;7.93;;;4.28;;
48795;SDS011;34607;48.520;-1.330;2023-12-07T14:09:39;5.15;;;4.32;;
48795;SDS011;34607;48.520;-1.330;2023-12-07T14:12:08;5.70;;;4.72;;
48795;SDS011;34607;48.520;-1.330;2023-12-07T14:14:38;6.68;;;4.82;;
48795;SDS011;34607;48.520;-1.330;2023-12-07T14:17:05;7.38;;;4.30;;
48795;SDS011;34607;48.520;-1.330;2023-12-07T14:19:32;6.30;;;4.70;;
48795;SDS011;34607;48.520;-1.330;2023-12-07T14:22:00;7.80;;;4.80;;
48795;SDS011;34607;48.520;-1.330;2023-12-07T14:24:29;6.05;;;5.43;;
48795;SDS011;34607;48.520;-1.330;2023-12-07T14:26:57;8.52;;;5.05;;
48795;SDS011;34607;48.520;-1.330;2023-12-07T14:29:24;9.80;;;4.68;;
48795;SDS011;34607;48.520;-1.330;2023-12-07T14:31:51;7.53;;;5.47;;
48795;SDS011;34607;48.520;-1.330;2023-12-07T14:34:18;6.35;;;4.97;;
48795;SDS011;34607;48.520;-1.330;2023-12-07T14:36:45;9.55;;;5.35;;
48795;SDS011;34607;48.520;-1.330;2023-12-07T14:39:13;10.75;;;6.30;;
48795;SDS011;34607;48.520;-1.330;2023-12-07T14:41:44;6.57;;;4.93;;
48795;SDS011;34607;48.520;-1.330;2023-12-07T14:44:13;6.70;;;4.80;;
48795;SDS011;34607;48.520;-1.330;2023-12-07T14:46:41;6.70;;;5.32;;
48795;SDS011;34607;48.520;-1.330;2023-12-07T14:49:09;6.70;;;5.28;;
48795;SDS011;34607;48.520;-1.330;2023-12-07T14:51:36;7.45;;;5.47;;
48795;SDS011;34607;48.520;-1.330;2023-12-07T14:54:03;9.82;;;6.05;;
48795;SDS011;34607;48.520;-1.330;2023-12-07T14:56:31;6.72;;;5.65;;
48795;SDS011;34607;48.520;-1.330;2023-12-07T14:59:00;8.30;;;5.75;;
48795;SDS011;34607;48.520;-1.330;2023-12-07T15:01:27;10.25;;;6.95;;
48795;SDS011;34607;48.520;-1.330;2023-12-07T15:03:55;12.35;;;6.95;;
48795;SDS011;34607;48.520;-1.330;2023-12-07T15:06:22;13.38;;;8.40;;
48795;SDS011;34607;48.520;-1.330;2023-12-07T15:08:49;14.77;;;9.80;;
48795;SDS011;34607;48.520;-1.330;2023-12-07T15:11:16;19.77;;;9.98;;
48795;SDS011;34607;48.520;-1.330;2023-12-07T15:13:43;19.10;;;11.13;;
48795;SDS011;34607;48.520;-1.330;2023-12-07T15:16:12;16.70;;;9.65;;
48795;SDS011;34607;48.520;-1.330;2023-12-07T15:18:39;17.35;;;9.23;;
48795;SDS011;34607;48.520;-1.330;2023-12-07T15:21:10;18.73;;;9.45;;
48795;SDS011;34607;48.520;-1.330;2023-12-07T15:23:38;13.52;;;8.90;;
48795;SDS011;34607;48.520;-1.330;2023-12-07T15:26:05;10.57;;;6.88;;
48795;SDS011;34607;48.520;-1.330;2023-12-07T15:28:34;8.68;;;6.35;;
48795;SDS011;34607;48.520;-1.330;2023-12-07T15:31:01;8.43;;;6.70;;
48795;SDS011;34607;48.520;-1.330;2023-12-07T15:33:30;6.95;;;6.25;;
48795;SDS011;34607;48.520;-1.330;2023-12-07T15:35:57;7.70;;;6.00;;
48795;SDS011;34607;48.520;-1.330;2023-12-07T15:38:24;11.25;;;5.55;;
48795;SDS011;34607;48.520;-1.330;2023-12-07T15:40:51;8.32;;;6.15;;
48795;SDS011;34607;48.520;-1.330;2023-12-07T15:43:21;6.95;;;5.78;;
48795;SDS011;34607;48.520;-1.330;2023-12-07T15:45:49;8.35;;;6.35;;
48795;SDS011;34607;48.520;-1.330;2023-12-07T15:48:16;7.93;;;5.43;;
48795;SDS011;34607;48.520;-1.330;2023-12-07T15:50:45;8.38;;;5.57;;
48795;SDS011;34607;48.520;-1.330;2023-12-07T15:53:13;6.93;;;5.35;;
48795;SDS011;34607;48.520;-1.330;2023-12-07T15:55:40;8.88;;;6.22;;
48795;SDS011;34607;48.520;-1.330;2023-12-07T15:58:07;7.95;;;6.80;;
48795;SDS011;34607;48.520;-1.330;2023-12-07T16:00:34;7.30;;;5.80;;
48795;SDS011;34607;48.520;-1.330;2023-12-07T16:03:01;8.68;;;6.30;;
48795;SDS011;34607;48.520;-1.330;2023-12-07T16:05:29;9.80;;;7.35;;
48795;SDS011;34607;48.520;-1.330;2023-12-07T16:07:57;7.82;;;6.40;;
48795;SDS011;34607;48.520;-1.330;2023-12-07T16:10:24;8.63;;;5.90;;
48795;SDS011;34607;48.520;-1.330;2023-12-07T16:12:51;7.85;;;7.05;;
48795;SDS011;34607;48.520;-1.330;2023-12-07T16:15:18;8.93;;;6.25;;
48795;SDS011;34607;48.520;-1.330;2023-12-07T16:17:45;8.02;;;6.15;;
48795;SDS011;34607;48.520;-1.330;2023-12-07T16:20:13;8.30;;;6.20;;
48795;SDS011;34607;48.520;-1.330;2023-12-07T16:22:42;9.75;;;5.97;;
48795;SDS011;34607;48.520;-1.330;2023-12-07T16:25:11;9.68;;;5.68;;
48795;SDS011;34607;48.520;-1.330;2023-12-07T16:27:39;6.78;;;5.28;;
48795;SDS011;34607;48.520;-1.330;2023-12-07T16:30:07;8.40;;;6.60;;
48795;SDS011;34607;48.520;-1.330;2023-12-07T16:32:40;10.00;;;6.78;;
48795;SDS011;34607;48.520;-1.330;2023-12-07T16:35:08;8.73;;;7.32;;
48795;SDS011;34607;48.520;-1.330;2023-12-07T16:37:35;8.93;;;7.20;;
48795;SDS011;34607;48.520;-1.330;2023-12-07T16:40:02;10.00;;;7.65;;
48795;SDS011;34607;48.520;-1.330;2023-12-07T16:42:31;7.68;;;6.40;;
48795;SDS011;34607;48.520;-1.330;2023-12-07T16:44:58;7.22;;;6.10;;
48795;SDS011;34607;48.520;-1.330;2023-12-07T16:47:25;6.40;;;5.75;;
48795;SDS011;34607;48.520;-1.330;2023-12-07T16:49:52;10.38;;;6.55;;
48795;SDS011;34607;48.520;-1.330;2023-12-07T16:52:19;8.48;;;6.35;;
48795;SDS011;34607;48.520;-1.330;2023-12-07T16:54:46;7.55;;;6.47;;
48795;SDS011;34607;48.520;-1.330;2023-12-07T16:57:13;7.00;;;6.28;;
48795;SDS011;34607;48.520;-1.330;2023-12-07T16:59:42;10.00;;;8.20;;
48795;SDS011;34607;48.520;-1.330;2023-12-07T17:02:10;8.93;;;7.85;;
48795;SDS011;34607;48.520;-1.330;2023-12-07T17:04:37;8.27;;;6.18;;
48795;SDS011;34607;48.520;-1.330;2023-12-07T17:07:04;8.30;;;6.63;;
48795;SDS011;34607;48.520;-1.330;2023-12-07T17:09:31;8.38;;;6.68;;
48795;SDS011;34607;48.520;-1.330;2023-12-07T17:11:59;6.63;;;5.97;;
48795;SDS011;34607;48.520;-1.330;2023-12-07T17:14:26;7.05;;;6.35;;
48795;SDS011;34607;48.520;-1.330;2023-12-07T17:16:54;9.00;;;7.18;;
48795;SDS011;34607;48.520;-1.330;2023-12-07T17:19:21;7.13;;;6.43;;
48795;SDS011;34607;48.520;-1.330;2023-12-07T17:21:48;8.50;;;6.45;;
48795;SDS011;34607;48.520;-1.330;2023-12-07T17:24:16;6.30;;;5.72;;
48795;SDS011;34607;48.520;-1.330;2023-12-07T17:26:45;6.63;;;5.70;;
48795;SDS011;34607;48.520;-1.330;2023-12-07T17:29:12;6.25;;;5.65;;
48795;SDS011;34607;48.520;-1.330;2023-12-07T17:31:39;6.18;;;5.57;;
48795;SDS011;34607;48.520;-1.330;2023-12-07T17:34:09;6.80;;;5.57;;
48795;SDS011;34607;48.520;-1.330;2023-12-07T17:36:36;5.97;;;5.32;;
48795;SDS011;34607;48.520;-1.330;2023-12-07T17:39:03;5.80;;;5.22;;
48795;SDS011;34607;48.520;-1.330;2023-12-07T17:41:30;6.00;;;5.40;;
48795;SDS011;34607;48.520;-1.330;2023-12-07T17:43:57;5.47;;;4.88;;
48795;SDS011;34607;48.520;-1.330;2023-12-07T17:46:26;7.75;;;5.68;;
48795;SDS011;34607;48.520;-1.330;2023-12-07T17:48:53;6.07;;;5.47;;
48795;SDS011;34607;48.520;-1.330;2023-12-07T17:51:22;6.68;;;6.00;;
48795;SDS011;34607;48.520;-1.330;2023-12-07T17:53:50;8.35;;;5.40;;
48795;SDS011;34607;48.520;-1.330;2023-12-07T17:56:17;8.95;;;6.85;;
48795;SDS011;34607;48.520;-1.330;2023-12-07T17:58:44;10.05;;;7.22;;
48795;SDS011;34607;48.520;-1.330;2023-12-07T18:01:17;10.35;;;8.23;;
48795;SDS011;34607;48.520;-1.330;2023-12-07T18:03:45;7.53;;;6.83;;
48795;SDS011;34607;48.520;-1.330;2023-12-07T18:06:12;8.63;;;5.78;;
48795;SDS011;34607;48.520;-1.330;2023-12-07T18:08:41;7.15;;;6.45;;
48795;SDS011;34607;48.520;-1.330;2023-12-07T18:11:08;6.80;;;6.15;;
48795;SDS011;34607;48.520;-1.330;2023-12-07T18:13:35;6.57;;;5.97;;
48795;SDS011;34607;48.520;-1.330;2023-12-07T18:16:02;6.00;;;5.40;;
48795;SDS011;34607;48.520;-1.330;2023-12-07T18:18:29;5.93;;;5.30;;
48795;SDS011;34607;48.520;-1.330;2023-12-07T18:20:56;7.57;;;6.43;;
48795;SDS011;34607;48.520;-1.330;2023-12-07T18:23:23;6.60;;;5.88;;
48795;SDS011;34607;48.520;-1.330;2023-12-07T18:25:52;9.07;;;7.30;;
48795;SDS011;34607;48.520;-1.330;2023-12-07T18:28:19;9.55;;;8.55;;
48795;SDS011;34607;48.520;-1.330;2023-12-07T18:30:46;8.73;;;7.90;;
48795;SDS011;34607;48.520;-1.330;2023-12-07T18:33:13;11.90;;;10.80;;
48795;SDS011;34607;48.520;-1.330;2023-12-07T18:35:40;7.75;;;6.93;;
48795;SDS011;34607;48.520;-1.330;2023-12-07T18:38:07;10.82;;;9.70;;
48795;SDS011;34607;48.520;-1.330;2023-12-07T18:40:34;15.13;;;12.73;;
48795;SDS011;34607;48.520;-1.330;2023-12-07T18:43:09;15.63;;;14.20;;
48795;SDS011;34607;48.520;-1.330;2023-12-07T18:45:36;17.17;;;15.57;;
48795;SDS011;34607;48.520;-1.330;2023-12-07T18:48:04;12.45;;;10.63;;
48795;SDS011;34607;48.520;-1.330;2023-12-07T18:50:31;10.60;;;9.45;;
48795;SDS011;34607;48.520;-1.330;2023-12-07T18:52:58;12.00;;;10.35;;
48795;SDS011;34607;48.520;-1.330;2023-12-07T18:55:25;11.52;;;9.23;;
48795;SDS011;34607;48.520;-1.330;2023-12-07T18:57:53;10.98;;;9.85;;
48795;SDS011;34607;48.520;-1.330;2023-12-07T19:00:21;9.88;;;8.88;;
48795;SDS011;34607;48.520;-1.330;2023-12-07T19:02:49;11.30;;;10.10;;
48795;SDS011;34607;48.520;-1.330;2023-12-07T19:05:16;18.25;;;11.45;;
48795;SDS011;34607;48.520;-1.330;2023-12-07T19:07:43;10.68;;;9.55;;
48795;SDS011;34607;48.520;-1.330;2023-12-07T19:10:10;12.27;;;10.98;;
48795;SDS011;34607;48.520;-1.330;2023-12-07T19:12:37;14.98;;;10.65;;
48795;SDS011;34607;48.520;-1.330;2023-12-07T19:15:04;13.93;;;10.45;;
48795;SDS011;34607;48.520;-1.330;2023-12-07T19:17:33;21.65;;;19.40;;
48795;SDS011;34607;48.520;-1.330;2023-12-07T19:20:00;26.90;;;21.58;;
48795;SDS011;34607;48.520;-1.330;2023-12-07T19:22:27;15.35;;;12.93;;
48795;SDS011;34607;48.520;-1.330;2023-12-07T19:24:54;18.58;;;16.20;;
48795;SDS011;34607;48.520;-1.330;2023-12-07T19:27:22;20.70;;;18.52;;
48795;SDS011;34607;48.520;-1.330;2023-12-07T19:29:49;18.48;;;15.98;;
48795;SDS011;34607;48.520;-1.330;2023-12-07T19:32:16;22.75;;;16.45;;
48795;SDS011;34607;48.520;-1.330;2023-12-07T19:34:45;23.95;;;21.15;;
48795;SDS011;34607;48.520;-1.330;2023-12-07T19:37:13;22.17;;;15.43;;
48795;SDS011;34607;48.520;-1.330;2023-12-07T19:39:40;27.05;;;24.25;;
48795;SDS011;34607;48.520;-1.330;2023-12-07T19:42:07;27.10;;;23.88;;
48795;SDS011;34607;48.520;-1.330;2023-12-07T19:44:34;19.15;;;16.17;;
48795;SDS011;34607;48.520;-1.330;2023-12-07T19:47:01;22.30;;;16.83;;
48795;SDS011;34607;48.520;-1.330;2023-12-07T19:49:28;20.48;;;14.50;;
48795;SDS011;34607;48.520;-1.330;2023-12-07T19:51:56;19.13;;;15.02;;
48795;SDS011;34607;48.520;-1.330;2023-12-07T19:54:23;22.95;;;16.38;;
48795;SDS011;34607;48.520;-1.330;2023-12-07T19:56:52;21.50;;;17.20;;
48795;SDS011;34607;48.520;-1.330;2023-12-07T19:59:19;27.38;;;17.20;;
48795;SDS011;34607;48.520;-1.330;2023-12-07T20:01:47;30.92;;;20.60;;
48795;SDS011;34607;48.520;-1.330;2023-12-07T20:04:14;25.73;;;21.10;;
48795;SDS011;34607;48.520;-1.330;2023-12-07T20:06:41;30.10;;;17.70;;
48795;SDS011;34607;48.520;-1.330;2023-12-07T20:09:10;32.03;;;18.60;;
48795;SDS011;34607;48.520;-1.330;2023-12-07T20:11:39;31.33;;;21.25;;
48795;SDS011;34607;48.520;-1.330;2023-12-07T20:14:06;34.15;;;20.63;;
48795;SDS011;34607;48.520;-1.330;2023-12-07T20:16:34;42.65;;;35.50;;
48795;SDS011;34607;48.520;-1.330;2023-12-07T20:19:01;31.92;;;20.20;;
48795;SDS011;34607;48.520;-1.330;2023-12-07T20:21:29;33.30;;;18.70;;
48795;SDS011;34607;48.520;-1.330;2023-12-07T20:23:56;36.40;;;20.92;;
48795;SDS011;34607;48.520;-1.330;2023-12-07T20:26:24;33.95;;;19.95;;
48795;SDS011;34607;48.520;-1.330;2023-12-07T20:28:51;38.13;;;23.92;;
48795;SDS011;34607;48.520;-1.330;2023-12-07T20:31:18;35.83;;;19.80;;
48795;SDS011;34607;48.520;-1.330;2023-12-07T20:33:46;39.22;;;20.83;;
48795;SDS011;34607;48.520;-1.330;2023-12-07T20:36:13;30.75;;;18.92;;
48795;SDS011;34607;48.520;-1.330;2023-12-07T20:38:40;73.53;;;42.40;;
48795;SDS011;34607;48.520;-1.330;2023-12-07T20:41:07;33.75;;;20.65;;
48795;SDS011;34607;48.520;-1.330;2023-12-07T20:43:36;45.55;;;20.35;;
48795;SDS011;34607;48.520;-1.330;2023-12-07T20:46:04;51.90;;;21.27;;
48795;SDS011;34607;48.520;-1.330;2023-12-07T20:48:32;42.67;;;26.05;;
48795;SDS011;34607;48.520;-1.330;2023-12-07T20:50:59;47.88;;;28.67;;
48795;SDS011;34607;48.520;-1.330;2023-12-07T20:53:27;55.38;;;29.58;;
48795;SDS011;34607;48.520;-1.330;2023-12-07T20:55:54;39.92;;;21.30;;
48795;SDS011;34607;48.520;-1.330;2023-12-07T20:58:21;57.42;;;24.30;;
48795;SDS011;34607;48.520;-1.330;2023-12-07T21:00:50;44.88;;;26.25;;
48795;SDS011;34607;48.520;-1.330;2023-12-07T21:03:17;61.08;;;30.42;;
48795;SDS011;34607;48.520;-1.330;2023-12-07T21:05:44;93.22;;;47.45;;
48795;SDS011;34607;48.520;-1.330;2023-12-07T21:08:11;53.88;;;31.98;;
48795;SDS011;34607;48.520;-1.330;2023-12-07T21:10:38;57.45;;;33.88;;
48795;SDS011;34607;48.520;-1.330;2023-12-07T21:13:05;42.55;;;27.90;;
48795;SDS011;34607;48.520;-1.330;2023-12-07T21:15:32;38.97;;;21.98;;
48795;SDS011;34607;48.520;-1.330;2023-12-07T21:18:02;48.25;;;22.95;;
48795;SDS011;34607;48.520;-1.330;2023-12-07T21:20:29;44.92;;;19.77;;
48795;SDS011;34607;48.520;-1.330;2023-12-07T21:22:56;56.85;;;21.83;;
48795;SDS011;34607;48.520;-1.330;2023-12-07T21:25:23;55.35;;;25.70;;
48795;SDS011;34607;48.520;-1.330;2023-12-07T21:27:50;49.15;;;23.00;;
48795;SDS011;34607;48.520;-1.330;2023-12-07T21:30:17;56.53;;;26.58;;
48795;SDS011;34607;48.520;-1.330;2023-12-07T21:32:45;71.38;;;25.13;;
48795;SDS011;34607;48.520;-1.330;2023-12-07T21:35:13;47.28;;;21.33;;
48795;SDS011;34607;48.520;-1.330;2023-12-07T21:37:40;42.83;;;23.15;;
48795;SDS011;34607;48.520;-1.330;2023-12-07T21:40:08;82.10;;;23.85;;
48795;SDS011;34607;48.520;-1.330;2023-12-07T21:42:35;52.70;;;22.55;;
48795;SDS011;34607;48.520;-1.330;2023-12-07T21:45:03;55.20;;;23.83;;
48795;SDS011;34607;48.520;-1.330;2023-12-07T21:47:30;79.65;;;28.33;;
48795;SDS011;34607;48.520;-1.330;2023-12-07T21:49:57;55.28;;;21.38;;
48795;SDS011;34607;48.520;-1.330;2023-12-07T21:52:25;68.22;;;22.58;;
48795;SDS011;34607;48.520;-1.330;2023-12-07T21:54:52;57.67;;;23.75;;
48795;SDS011;34607;48.520;-1.330;2023-12-07T21:57:19;53.33;;;23.55;;
48795;SDS011;34607;48.520;-1.330;2023-12-07T21:59:46;57.30;;;25.77;;
48795;SDS011;34607;48.520;-1.330;2023-12-07T22:02:15;46.17;;;22.58;;
48795;SDS011;34607;48.520;-1.330;2023-12-07T22:04:42;43.78;;;21.92;;
